createdAt,value
2023-04-14T00:00:00.547Z,92.6
2023-04-14T00:01:00.546Z,92.6
2023-04-14T00:02:00.624Z,92.6
2023-04-14T00:03:00.644Z,92.6
2023-04-14T00:04:00.793Z,92.6
2023-04-14T00:05:00.635Z,92.6
2023-04-14T00:06:00.517Z,92.6
2023-04-14T00:07:00.540Z,92.6
2023-04-14T00:08:00.523Z,92.6
2023-04-14T00:09:00.727Z,92.6
2023-04-14T00:10:00.544Z,92.6
2023-04-14T00:11:00.550Z,92.6
2023-04-14T00:12:00.543Z,92.6
2023-04-14T00:13:00.534Z,92.6
2023-04-14T00:14:00.558Z,92.3
2023-04-14T00:15:00.586Z,92
2023-04-14T00:16:00.562Z,92
2023-04-14T00:17:00.558Z,92
2023-04-14T00:18:00.621Z,92
2023-04-14T00:19:00.748Z,92
2023-04-14T00:20:00.566Z,92
2023-04-14T00:21:00.546Z,92
2023-04-14T00:22:00.539Z,92
2023-04-14T00:23:00.548Z,91.7
2023-04-14T00:24:00.552Z,91.4
2023-04-14T00:25:00.577Z,91.1
2023-04-14T00:26:00.554Z,91.1
2023-04-14T00:27:00.545Z,91.1
2023-04-14T00:28:00.548Z,90.8
2023-04-14T00:29:01.081Z,90.8
2023-04-14T00:30:00.581Z,90.8
2023-04-14T00:31:00.614Z,90.5
2023-04-14T00:32:00.564Z,90.5
2023-04-14T00:33:00.626Z,90.8
2023-04-14T00:34:00.569Z,90.8
2023-04-14T00:35:00.568Z,90.8
2023-04-14T00:36:00.585Z,90.8
2023-04-14T00:37:00.581Z,90.8
2023-04-14T00:38:00.561Z,90.8
2023-04-14T00:39:00.757Z,90.8
2023-04-14T00:40:00.603Z,90.8
2023-04-14T00:41:00.611Z,90.8
2023-04-14T00:42:00.558Z,90.8
2023-04-14T00:43:00.569Z,90.8
2023-04-14T00:44:00.608Z,90.8
2023-04-14T00:45:00.573Z,91.1
2023-04-14T00:46:00.595Z,91.1
2023-04-14T00:47:00.571Z,90.8
2023-04-14T00:48:00.664Z,90.8
2023-04-14T00:49:00.842Z,90.8
2023-04-14T00:50:00.624Z,90.5
2023-04-14T00:51:00.573Z,90.5
2023-04-14T00:52:00.582Z,90.5
2023-04-14T00:53:00.572Z,90.5
2023-04-14T00:54:00.594Z,90.2
2023-04-14T00:55:00.593Z,90.2
2023-04-14T00:56:00.585Z,90.2
2023-04-14T00:57:00.624Z,90.5
2023-04-14T00:58:00.580Z,90.5
2023-04-14T00:59:00.700Z,90.5
2023-04-14T01:00:00.640Z,90.2
2023-04-14T01:01:00.604Z,90.2
2023-04-14T01:02:00.747Z,90.5
2023-04-14T01:03:00.798Z,90.5
2023-04-14T01:04:00.858Z,90.2
2023-04-14T01:05:00.813Z,90.2
2023-04-14T01:06:00.601Z,90.2
2023-04-14T01:07:00.664Z,90.2
2023-04-14T01:08:00.593Z,90.2
2023-04-14T01:09:00.766Z,89.9
2023-04-14T01:10:00.934Z,89.6
2023-04-14T01:11:00.598Z,89.6
2023-04-14T01:12:00.613Z,89.6
2023-04-14T01:13:00.686Z,89.6
2023-04-14T01:14:00.621Z,89.6
2023-04-14T01:15:00.646Z,89.6
2023-04-14T01:16:00.667Z,89.6
2023-04-14T01:17:00.612Z,89.3
2023-04-14T01:18:00.714Z,89.3
2023-04-14T01:19:02.069Z,89.6
2023-04-14T01:20:00.817Z,89.6
2023-04-14T01:21:00.671Z,89.6
2023-04-14T01:22:00.691Z,89.9
2023-04-14T01:23:00.713Z,90.2
2023-04-14T01:24:00.681Z,90.2
2023-04-14T01:25:00.706Z,89.9
2023-04-14T01:26:00.705Z,89.6
2023-04-14T01:27:00.874Z,89.6
2023-04-14T01:28:00.729Z,89.9
2023-04-14T01:29:00.886Z,89.9
2023-04-14T01:30:01.042Z,89.6
2023-04-14T01:31:00.761Z,89.6
2023-04-14T01:32:00.868Z,89.6
2023-04-14T01:33:00.887Z,89.1
2023-04-14T01:34:00.752Z,89.3
2023-04-14T01:35:00.786Z,89.3
2023-04-14T01:36:00.780Z,89.3
2023-04-14T01:37:00.735Z,89.3
2023-04-14T01:38:00.790Z,89.6
2023-04-14T01:39:00.789Z,89
2023-04-14T01:40:00.862Z,89.3
2023-04-14T01:41:00.760Z,89
2023-04-14T01:42:00.692Z,89
2023-04-14T01:43:00.746Z,89
2023-04-14T01:44:00.643Z,89.3
2023-04-14T01:45:00.809Z,89.6
2023-04-14T01:46:00.706Z,89.6
2023-04-14T01:47:00.629Z,89.6
2023-04-14T01:48:00.691Z,89.6
2023-04-14T01:49:00.883Z,89.6
2023-04-14T01:50:00.730Z,89.6
2023-04-14T01:51:00.652Z,89.6
2023-04-14T01:52:00.655Z,89.3
2023-04-14T01:53:00.635Z,89.3
2023-04-14T01:54:00.640Z,89.6
2023-04-14T01:55:00.654Z,89.3
2023-04-14T01:56:00.644Z,89
2023-04-14T01:57:00.659Z,89
2023-04-14T01:58:00.655Z,89
2023-04-14T01:59:00.772Z,89
2023-04-14T02:00:02.094Z,89
2023-04-14T02:01:01.852Z,89
2023-04-14T02:02:01.887Z,89.3
2023-04-14T02:03:01.922Z,89.3
2023-04-14T02:04:02.005Z,89.3
2023-04-14T02:05:01.941Z,89.6
2023-04-14T02:06:01.832Z,89.6
2023-04-14T02:07:01.860Z,89.6
2023-04-14T02:08:01.899Z,89.6
2023-04-14T02:09:02.206Z,89.6
2023-04-14T02:10:01.977Z,89.6
2023-04-14T02:11:01.869Z,89.6
2023-04-14T02:12:01.903Z,89.6
2023-04-14T02:13:01.839Z,89.3
2023-04-14T02:14:01.841Z,89.6
2023-04-14T02:15:01.866Z,89.3
2023-04-14T02:16:01.966Z,89.3
2023-04-14T02:17:01.935Z,89
2023-04-14T02:18:01.882Z,89
2023-04-14T02:19:02.295Z,89
2023-04-14T02:20:02.096Z,89.3
2023-04-14T02:21:01.867Z,89
2023-04-14T02:22:01.916Z,89
2023-04-14T02:23:01.905Z,88.7
2023-04-14T02:24:01.862Z,89
2023-04-14T02:25:01.890Z,89
2023-04-14T02:26:01.883Z,89
2023-04-14T02:27:01.876Z,89.3
2023-04-14T02:28:01.912Z,89.3
2023-04-14T02:29:02.163Z,89
2023-04-14T02:30:02.059Z,89
2023-04-14T02:31:01.957Z,89
2023-04-14T02:32:01.872Z,89.6
2023-04-14T02:33:01.920Z,89.6
2023-04-14T02:34:01.883Z,89.4
2023-04-14T02:35:01.958Z,89.6
2023-04-14T02:36:01.912Z,89.6
2023-04-14T02:37:01.879Z,89.6
2023-04-14T02:38:01.879Z,89.6
2023-04-14T02:39:02.082Z,89.9
2023-04-14T02:40:01.956Z,89.9
2023-04-14T02:41:01.872Z,89.6
2023-04-14T02:42:01.886Z,89.6
2023-04-14T02:43:01.900Z,89.6
2023-04-14T02:44:01.891Z,89.6
2023-04-14T02:45:01.872Z,89.6
2023-04-14T02:46:01.902Z,89.6
2023-04-14T02:47:01.873Z,89.6
2023-04-14T02:48:01.904Z,89.6
2023-04-14T02:49:02.162Z,89.6
2023-04-14T02:50:01.966Z,89.6
2023-04-14T02:51:01.894Z,89.6
2023-04-14T02:52:01.882Z,89.6
2023-04-14T02:53:01.876Z,89.5
2023-04-14T02:54:01.917Z,89.5
2023-04-14T02:55:01.909Z,89.5
2023-04-14T02:56:01.895Z,89.6
2023-04-14T02:57:01.886Z,89.5
2023-04-14T02:58:01.896Z,89.5
2023-04-14T02:59:02.153Z,89.5
2023-04-14T03:00:02.009Z,89.5
2023-04-14T03:01:01.912Z,90.1
2023-04-14T03:02:02.002Z,90.1
2023-04-14T03:03:02.019Z,90.2
2023-04-14T03:04:01.937Z,89.8
2023-04-14T03:05:02.026Z,90.1
2023-04-14T03:06:01.925Z,90.1
2023-04-14T03:07:01.888Z,90.1
2023-04-14T03:08:01.887Z,90.1
2023-04-14T03:09:02.271Z,90.4
2023-04-14T03:10:02.058Z,90.7
2023-04-14T03:11:01.901Z,90.8
2023-04-14T03:12:01.900Z,91
2023-04-14T03:13:01.910Z,91.4
2023-04-14T03:14:01.908Z,91.4
2023-04-14T03:15:01.986Z,91.4
2023-04-14T03:16:01.965Z,91.1
2023-04-14T03:17:01.891Z,91.1
2023-04-14T03:18:01.930Z,91.1
2023-04-14T03:19:02.158Z,91.1
2023-04-14T03:20:01.911Z,91.4
2023-04-14T03:21:01.911Z,91.4
2023-04-14T03:22:01.912Z,91.4
2023-04-14T03:23:01.927Z,91.4
2023-04-14T03:24:01.935Z,91.4
2023-04-14T03:25:01.919Z,91.4
2023-04-14T03:26:01.981Z,91.4
2023-04-14T03:27:01.935Z,91.4
2023-04-14T03:28:01.930Z,91.4
2023-04-14T03:29:02.095Z,91.4
2023-04-14T03:30:01.933Z,91.1
2023-04-14T03:31:01.989Z,91.4
2023-04-14T03:32:01.917Z,91.4
2023-04-14T03:33:01.997Z,91.4
2023-04-14T03:34:01.944Z,91.4
2023-04-14T03:35:01.992Z,91.4
2023-04-14T03:36:01.914Z,91.4
2023-04-14T03:37:01.956Z,91.4
2023-04-14T03:38:01.927Z,91.3
2023-04-14T03:39:02.173Z,91.4
2023-04-14T03:40:02.042Z,91.4
2023-04-14T03:41:02.768Z,91.4
2023-04-14T03:42:02.014Z,91.4
2023-04-14T03:43:01.940Z,91.4
2023-04-14T03:44:01.931Z,91.4
2023-04-14T03:45:01.962Z,91.4
2023-04-14T03:46:01.920Z,91.2
2023-04-14T03:47:02.053Z,91.4
2023-04-14T03:48:02.045Z,91.1
2023-04-14T03:49:02.028Z,91.1
2023-04-14T03:50:01.970Z,91.4
2023-04-14T03:51:01.937Z,91
2023-04-14T03:52:01.944Z,91.1
2023-04-14T03:53:01.940Z,91.4
2023-04-14T03:54:01.946Z,91.4
2023-04-14T03:55:01.969Z,91.4
2023-04-14T03:56:01.937Z,91.3
2023-04-14T03:57:01.963Z,91.4
2023-04-14T03:58:01.981Z,91
2023-04-14T03:59:02.155Z,91
2023-04-14T04:00:02.071Z,91
2023-04-14T04:01:01.945Z,91.4
2023-04-14T04:02:02.046Z,91.4
2023-04-14T04:03:02.100Z,91.4
2023-04-14T04:04:02.002Z,91.4
2023-04-14T04:05:02.087Z,91.4
2023-04-14T04:06:01.939Z,91.4
2023-04-14T04:07:01.944Z,91.3
2023-04-14T04:08:01.946Z,91.4
2023-04-14T04:09:02.380Z,91.4
2023-04-14T04:10:01.998Z,91
2023-04-14T04:11:01.949Z,91
2023-04-14T04:12:01.967Z,91
2023-04-14T04:13:01.970Z,91
2023-04-14T04:14:01.988Z,90.7
2023-04-14T04:15:01.969Z,90.7
2023-04-14T04:16:01.959Z,90.7
2023-04-14T04:17:02.081Z,90.7
2023-04-14T04:18:02.053Z,90.7
2023-04-14T04:19:02.246Z,90.7
2023-04-14T04:20:02.030Z,90.1
2023-04-14T04:21:01.965Z,90.1
2023-04-14T04:22:01.962Z,90.1
2023-04-14T04:23:01.968Z,90.1
2023-04-14T04:24:01.992Z,90.1
2023-04-14T04:25:01.991Z,90.1
2023-04-14T04:26:02.048Z,90.1
2023-04-14T04:27:00.477Z,90.7
2023-04-14T04:28:00.484Z,90.7
2023-04-14T04:29:00.742Z,90.7
2023-04-14T04:30:00.514Z,90.7
2023-04-14T04:31:00.508Z,90.7
2023-04-14T04:32:00.543Z,90.9
2023-04-14T04:33:00.499Z,90.7
2023-04-14T04:34:00.490Z,90.6
2023-04-14T04:35:00.529Z,90.7
2023-04-14T04:36:00.488Z,90.6
2023-04-14T04:37:00.511Z,90.3
2023-04-14T04:38:00.511Z,90.6
2023-04-14T04:39:00.800Z,90.3
2023-04-14T04:40:00.562Z,90
2023-04-14T04:41:00.559Z,90.3
2023-04-14T04:42:00.488Z,90.3
2023-04-14T04:43:00.549Z,90.3
2023-04-14T04:44:00.500Z,90.6
2023-04-14T04:45:00.511Z,90.6
2023-04-14T04:46:00.527Z,90.6
2023-04-14T04:47:00.508Z,90.6
2023-04-14T04:48:00.556Z,90.9
2023-04-14T04:49:00.834Z,91.2
2023-04-14T04:50:00.535Z,91.2
2023-04-14T04:51:00.525Z,91.2
2023-04-14T04:52:00.512Z,91.5
2023-04-14T04:53:00.551Z,91.2
2023-04-14T04:54:00.515Z,91.5
2023-04-14T04:55:00.572Z,91.5
2023-04-14T04:56:00.596Z,91.5
2023-04-14T04:57:00.586Z,91.2
2023-04-14T04:58:00.564Z,91.2
2023-04-14T04:59:00.917Z,91.2
2023-04-14T05:00:00.811Z,91.2
2023-04-14T05:01:00.631Z,91.2
2023-04-14T05:02:00.717Z,91.2
2023-04-14T05:03:00.692Z,90.9
2023-04-14T05:04:00.634Z,90.9
2023-04-14T05:05:00.675Z,91.2
2023-04-14T05:06:00.666Z,91.2
2023-04-14T05:07:00.739Z,91
2023-04-14T05:08:00.522Z,91.2
2023-04-14T05:09:00.885Z,91.2
2023-04-14T05:10:00.678Z,90.9
2023-04-14T05:11:00.648Z,91.2
2023-04-14T05:12:00.681Z,91.2
2023-04-14T05:13:00.626Z,91.2
2023-04-14T05:14:00.679Z,91.2
2023-04-14T05:15:00.566Z,91.2
2023-04-14T05:16:00.678Z,91.2
2023-04-14T05:17:00.683Z,91.2
2023-04-14T05:18:00.555Z,90.9
2023-04-14T05:19:01.057Z,91.2
2023-04-14T05:20:00.594Z,90.9
2023-04-14T05:21:00.538Z,91.2
2023-04-14T05:22:00.568Z,91.2
2023-04-14T05:23:00.541Z,90.9
2023-04-14T05:24:00.549Z,90.9
2023-04-14T05:25:00.575Z,90.9
2023-04-14T05:26:14.641Z,90.9
2023-04-14T05:27:13.789Z,90.9
2023-04-14T05:28:00.556Z,90.6
2023-04-14T05:29:00.935Z,90.6
2023-04-14T05:30:00.560Z,90.9
2023-04-14T05:31:01.462Z,90.9
2023-04-14T05:32:00.576Z,90.9
2023-04-14T05:33:00.643Z,90.9
2023-04-14T05:34:00.904Z,91.2
2023-04-14T05:35:00.586Z,91
2023-04-14T05:36:00.556Z,91.2
2023-04-14T05:37:00.577Z,91.2
2023-04-14T05:38:00.561Z,91.2
2023-04-14T05:39:00.558Z,90.9
2023-04-14T05:40:00.603Z,91.2
2023-04-14T05:41:00.570Z,91.2
2023-04-14T05:42:00.587Z,90.9
2023-04-14T05:43:00.560Z,90.9
2023-04-14T05:44:01.020Z,90.9
2023-04-14T05:45:00.574Z,90.6
2023-04-14T05:46:00.567Z,90.6
2023-04-14T05:47:00.746Z,90.6
2023-04-14T05:48:00.651Z,90.6
2023-04-14T05:49:00.902Z,90.6
2023-04-14T05:50:00.566Z,90.6
2023-04-14T05:51:00.568Z,90.6
2023-04-14T05:52:00.618Z,90.6
2023-04-14T05:53:00.579Z,90.6
2023-04-14T05:54:01.090Z,90.6
2023-04-14T05:55:00.588Z,90.6
2023-04-14T05:56:00.592Z,90.6
2023-04-14T05:57:00.596Z,90.9
2023-04-14T05:58:00.575Z,90.9
2023-04-14T05:59:00.576Z,90.6
2023-04-14T06:00:00.581Z,90.7
2023-04-14T06:01:00.602Z,90.7
2023-04-14T06:02:00.654Z,90.7
2023-04-14T06:03:00.938Z,90.7
2023-04-14T06:04:01.389Z,90.7
2023-04-14T06:05:00.671Z,90.7
2023-04-14T06:06:00.592Z,90.7
2023-04-14T06:07:00.609Z,90.4
2023-04-14T06:08:00.590Z,90.4
2023-04-14T06:09:01.023Z,90.4
2023-04-14T06:10:00.639Z,90.4
2023-04-14T06:11:00.609Z,90.1
2023-04-14T06:12:00.613Z,90.1
2023-04-14T06:13:00.597Z,90.5
2023-04-14T06:14:00.777Z,90.7
2023-04-14T06:15:00.590Z,91
2023-04-14T06:16:00.630Z,91
2023-04-14T06:17:00.664Z,91.3
2023-04-14T06:18:00.617Z,91
2023-04-14T06:19:01.085Z,91.4
2023-04-14T06:20:00.613Z,91
2023-04-14T06:21:00.620Z,90.7
2023-04-14T06:22:00.609Z,90.7
2023-04-14T06:23:00.613Z,90.8
2023-04-14T06:24:00.615Z,91.1
2023-04-14T06:25:00.665Z,90.8
2023-04-14T06:26:01.422Z,91.1
2023-04-14T06:27:00.617Z,90.8
2023-04-14T06:28:00.604Z,90.8
2023-04-14T06:29:01.215Z,90.8
2023-04-14T06:30:00.614Z,90.5
2023-04-14T06:31:00.638Z,90.5
2023-04-14T06:32:00.684Z,90.5
2023-04-14T06:33:00.668Z,90.3
2023-04-14T06:34:00.633Z,90.3
2023-04-14T06:35:00.626Z,90.3
2023-04-14T06:36:00.630Z,90
2023-04-14T06:37:00.619Z,90
2023-04-14T06:38:00.612Z,89.7
2023-04-14T06:39:00.852Z,89.7
2023-04-14T06:40:00.657Z,89.7
2023-04-14T06:41:00.635Z,89.7
2023-04-14T06:42:00.636Z,89.7
2023-04-14T06:43:00.618Z,89.4
2023-04-14T06:44:00.619Z,89.1
2023-04-14T06:45:00.633Z,89.4
2023-04-14T06:46:00.728Z,89.4
2023-04-14T06:47:00.645Z,89.1
2023-04-14T06:48:00.679Z,89.1
2023-04-14T06:49:00.957Z,89.1
2023-04-14T06:50:00.664Z,89.8
2023-04-14T06:51:00.654Z,89.7
2023-04-14T06:52:00.635Z,89.8
2023-04-14T06:53:00.638Z,89.8
2023-04-14T06:54:00.965Z,90.1
2023-04-14T06:55:00.680Z,90.1
2023-04-14T06:56:00.670Z,89.8
2023-04-14T06:57:01.217Z,89.8
2023-04-14T06:58:00.636Z,89.6
2023-04-14T06:59:00.656Z,89.8
2023-04-14T07:00:00.683Z,89.8
2023-04-14T07:01:00.685Z,90.1
2023-04-14T07:02:00.924Z,89.8
2023-04-14T07:03:00.804Z,89.8
2023-04-14T07:04:00.851Z,89.8
2023-04-14T07:05:00.759Z,90.2
2023-04-14T07:06:00.681Z,89.8
2023-04-14T07:07:00.649Z,90.1
2023-04-14T07:08:00.663Z,90.1
2023-04-14T07:09:00.686Z,89.9
2023-04-14T07:10:00.691Z,89.9
2023-04-14T07:11:00.645Z,90.5
2023-04-14T07:12:00.648Z,90.2
2023-04-14T07:13:00.680Z,90.5
2023-04-14T07:14:00.867Z,90.5
2023-04-14T07:15:00.678Z,90.5
2023-04-14T07:16:01.316Z,90.5
2023-04-14T07:17:00.670Z,90.5
2023-04-14T07:18:00.694Z,90.8
2023-04-14T07:19:00.673Z,90.5
2023-04-14T07:20:00.691Z,90.5
2023-04-14T07:21:00.679Z,90.5
2023-04-14T07:22:00.671Z,90.6
2023-04-14T07:23:00.695Z,90.6
2023-04-14T07:24:00.956Z,90.9
2023-04-14T07:25:00.813Z,91.2
2023-04-14T07:26:00.670Z,91.2
2023-04-14T07:27:00.693Z,90.9
2023-04-14T07:28:03.845Z,90.6
2023-04-14T07:29:00.661Z,90.6
2023-04-14T07:30:00.696Z,90.6
2023-04-14T07:31:00.685Z,90.6
2023-04-14T07:32:00.683Z,90.6
2023-04-14T07:33:00.736Z,90.6
2023-04-14T07:34:00.873Z,90
2023-04-14T07:35:00.808Z,90
2023-04-14T07:37:00.692Z,88.8
2023-04-14T07:38:00.724Z,88.5
2023-04-14T07:39:00.675Z,88.8
2023-04-14T07:40:00.799Z,88.9
2023-04-14T07:41:00.694Z,88.6
2023-04-14T07:42:00.688Z,88.3
2023-04-14T07:43:00.682Z,87.9
2023-04-14T07:44:01.072Z,86.7
2023-04-14T07:45:00.838Z,86.7
2023-04-14T07:46:00.735Z,87
2023-04-14T07:47:00.695Z,87.6
2023-04-14T07:48:00.738Z,87
2023-04-14T07:49:00.714Z,87
2023-04-14T07:50:00.790Z,86.4
2023-04-14T07:51:00.692Z,86.7
2023-04-14T07:52:00.690Z,86.4
2023-04-14T07:53:00.699Z,86.8
2023-04-14T07:54:00.930Z,87.1
2023-04-14T07:55:00.722Z,87.1
2023-04-14T07:56:00.720Z,86.8
2023-04-14T07:57:00.687Z,87.1
2023-04-14T07:58:00.702Z,87.2
2023-04-14T07:59:00.904Z,87.2
2023-04-14T08:00:00.805Z,86.5
2023-04-14T08:01:00.728Z,85.9
2023-04-14T08:02:00.820Z,85.9
2023-04-14T08:03:00.892Z,85.9
2023-04-14T08:04:00.984Z,85.9
2023-04-14T08:05:00.739Z,85.9
2023-04-14T08:06:00.733Z,85.9
2023-04-14T08:07:00.723Z,85.6
2023-04-14T08:08:00.703Z,85.6
2023-04-14T08:09:00.879Z,85.3
2023-04-14T08:10:00.779Z,85
2023-04-14T08:11:00.712Z,85.3
2023-04-14T08:12:00.737Z,85.9
2023-04-14T08:13:03.592Z,86
2023-04-14T08:14:00.710Z,85
2023-04-14T08:15:00.747Z,83.8
2023-04-14T08:16:01.064Z,83.5
2023-04-14T08:17:00.715Z,83.5
2023-04-14T08:18:00.745Z,83.4
2023-04-14T08:19:00.900Z,83.8
2023-04-14T08:20:00.817Z,83.4
2023-04-14T08:21:01.470Z,84
2023-04-14T08:22:00.710Z,84.7
2023-04-14T08:23:00.728Z,84.6
2023-04-14T08:24:00.731Z,85
2023-04-14T08:25:00.745Z,85.9
2023-04-14T08:26:00.731Z,85.9
2023-04-14T08:27:00.722Z,85.3
2023-04-14T08:28:00.765Z,85.9
2023-04-14T08:29:00.791Z,86.3
2023-04-14T08:30:00.784Z,85.7
2023-04-14T08:31:00.741Z,86
2023-04-14T08:32:00.750Z,86
2023-04-14T08:33:00.799Z,85.4
2023-04-14T08:34:00.775Z,85.1
2023-04-14T08:35:39.045Z,83.6
2023-04-14T08:36:01.015Z,84.8
2023-04-14T08:37:00.752Z,84.2
2023-04-14T08:38:00.751Z,84.2
2023-04-14T08:39:00.858Z,83.9
2023-04-14T08:40:00.836Z,84.3
2023-04-14T08:41:00.766Z,84.3
2023-04-14T08:42:00.737Z,83.4
2023-04-14T08:43:00.761Z,83
2023-04-14T08:44:00.737Z,83.1
2023-04-14T08:45:00.745Z,83.4
2023-04-14T08:46:00.839Z,82.8
2023-04-14T08:47:00.798Z,82.8
2023-04-14T08:48:00.834Z,82.5
2023-04-14T08:49:00.904Z,82.5
2023-04-14T08:50:00.900Z,82.5
2023-04-14T08:51:00.794Z,80.6
2023-04-14T08:52:00.748Z,81.3
2023-04-14T08:53:00.785Z,81.3
2023-04-14T08:54:00.975Z,81.3
2023-04-14T08:55:00.810Z,81.3
2023-04-14T08:56:00.780Z,80.4
2023-04-14T08:57:00.771Z,80.4
2023-04-14T08:58:00.809Z,78.9
2023-04-14T08:59:00.785Z,78.3
2023-04-14T09:00:00.987Z,79.3
2023-04-14T09:01:00.946Z,77.7
2023-04-14T09:02:00.854Z,78.3
2023-04-14T09:03:00.894Z,78
2023-04-14T09:04:01.158Z,77.1
2023-04-14T09:05:00.864Z,76.8
2023-04-14T09:06:00.811Z,77.1
2023-04-14T09:07:00.817Z,76.8
2023-04-14T09:08:00.837Z,75.3
2023-04-14T09:09:00.828Z,74.6
2023-04-14T09:10:00.998Z,72.1
2023-04-14T09:11:00.780Z,72.1
2023-04-14T09:12:00.769Z,72.4
2023-04-14T09:13:00.771Z,72.4
2023-04-14T09:14:01.346Z,73.4
2023-04-14T09:15:00.771Z,73.4
2023-04-14T09:16:00.799Z,71.8
2023-04-14T09:17:00.885Z,73.4
2023-04-14T09:18:00.839Z,73.7
2023-04-14T09:19:07.354Z,74
2023-04-14T09:20:34.889Z,72.8
2023-04-14T09:21:50.151Z,70.9
2023-04-14T09:22:00.855Z,72.2
2023-04-14T09:23:00.780Z,70.9
2023-04-14T09:24:01.067Z,71
2023-04-14T09:25:00.800Z,69.7
2023-04-14T09:26:00.812Z,69.7
2023-04-14T09:27:00.794Z,71
2023-04-14T09:28:00.796Z,70.3
2023-04-14T09:29:01.156Z,70.3
2023-04-14T09:30:00.916Z,69.7
2023-04-14T09:31:00.893Z,69.4
2023-04-14T09:32:00.801Z,70.1
2023-04-14T09:33:00.872Z,67.5
2023-04-14T09:34:01.128Z,68.8
2023-04-14T09:35:00.820Z,69.8
2023-04-14T09:36:00.801Z,67.2
2023-04-14T09:37:00.796Z,67.9
2023-04-14T09:38:00.824Z,69.4
2023-04-14T09:39:00.865Z,69.8
2023-04-14T09:40:01.071Z,69.1
2023-04-14T09:41:00.800Z,67.9
2023-04-14T09:42:00.808Z,67.9
2023-04-14T09:43:00.869Z,69.2
2023-04-14T09:44:01.303Z,69.2
2023-04-14T09:45:00.982Z,67.9
2023-04-14T09:46:00.833Z,68.6
2023-04-14T09:47:00.803Z,66.7
2023-04-14T09:48:00.840Z,67.6
2023-04-14T09:49:00.840Z,66.7
2023-04-14T09:50:00.988Z,67
2023-04-14T09:51:00.842Z,66.1
2023-04-14T09:52:00.842Z,67.3
2023-04-14T09:53:00.880Z,67.3
2023-04-14T09:54:01.152Z,66
2023-04-14T09:55:00.888Z,67.7
2023-04-14T09:56:00.849Z,66.7
2023-04-14T09:57:00.820Z,63.2
2023-04-14T09:58:00.845Z,64.2
2023-04-14T09:59:01.330Z,65.5
2023-04-14T10:00:01.352Z,65.4
2023-04-14T10:01:00.822Z,64.8
2023-04-14T10:02:00.966Z,64.8
2023-04-14T10:03:00.943Z,65.1
2023-04-14T10:04:00.854Z,64.5
2023-04-14T10:05:00.922Z,62.3
2023-04-14T10:06:00.882Z,63.6
2023-04-14T10:07:00.827Z,63.9
2023-04-14T10:08:00.895Z,63.6
2023-04-14T10:09:01.484Z,62.4
2023-04-14T10:10:01.013Z,57.9
2023-04-14T10:11:00.860Z,59.9
2023-04-14T10:12:00.869Z,60.5
2023-04-14T10:13:00.954Z,59.9
2023-04-14T10:14:00.929Z,61.1
2023-04-14T10:15:00.888Z,60.5
2023-04-14T10:16:00.887Z,60.8
2023-04-14T10:17:00.858Z,61.8
2023-04-14T10:18:00.905Z,61.8
2023-04-14T10:19:01.222Z,59.9
2023-04-14T10:20:01.011Z,58
2023-04-14T10:21:00.839Z,58
2023-04-14T10:22:00.880Z,56.7
2023-04-14T10:23:01.047Z,56.4
2023-04-14T10:24:00.938Z,57.4
2023-04-14T10:25:00.976Z,57.1
2023-04-14T10:26:01.018Z,58
2023-04-14T10:27:00.890Z,55.2
2023-04-14T10:28:00.991Z,55.5
2023-04-14T10:29:01.194Z,55.5
2023-04-14T10:30:00.901Z,54.8
2023-04-14T10:31:00.776Z,54.8
2023-04-14T10:32:00.781Z,54.8
2023-04-14T10:33:00.756Z,55.8
2023-04-14T10:34:00.764Z,53.6
2023-04-14T10:35:00.750Z,56.1
2023-04-14T10:36:00.694Z,53.9
2023-04-14T10:37:00.666Z,51.7
2023-04-14T10:38:00.621Z,51.7
2023-04-14T10:39:01.109Z,54.2
2023-04-14T10:40:01.650Z,56.7
2023-04-14T10:41:00.658Z,56.7
2023-04-14T10:42:00.558Z,55.2
2023-04-14T10:43:00.658Z,52.3
2023-04-14T10:44:00.523Z,54.2
2023-04-14T10:45:00.644Z,57.1
2023-04-14T10:46:00.617Z,56.8
2023-04-14T10:47:00.632Z,56.8
2023-04-14T10:48:00.615Z,55.5
2023-04-14T10:49:01.132Z,53.3
2023-04-14T10:50:00.896Z,54.9
2023-04-14T10:51:00.648Z,53.6
2023-04-14T10:52:00.841Z,50.4
2023-04-14T10:53:00.841Z,49.5
2023-04-14T10:54:00.912Z,51
2023-04-14T10:55:01.184Z,48.5
2023-04-14T10:56:01.048Z,49.8
2023-04-14T10:57:00.838Z,51
2023-04-14T10:58:00.821Z,52.9
2023-04-14T10:59:01.217Z,53.9
2023-04-14T11:00:01.067Z,52.6
2023-04-14T11:01:00.940Z,52.9
2023-04-14T11:02:01.149Z,52.6
2023-04-14T11:03:01.393Z,52.9
2023-04-14T11:04:00.923Z,52.3
2023-04-14T11:05:00.657Z,50.1
2023-04-14T11:06:00.674Z,51.7
2023-04-14T11:07:00.606Z,49.1
2023-04-14T11:08:02.765Z,50.4
2023-04-14T11:09:00.986Z,49.1
2023-04-14T11:10:00.918Z,48.2
2023-04-14T11:11:00.583Z,48.5
2023-04-14T11:12:00.470Z,49.4
2023-04-14T11:13:00.578Z,48.4
2023-04-14T11:14:00.868Z,47.8
2023-04-14T11:15:00.636Z,48.4
2023-04-14T11:16:00.542Z,50.3
2023-04-14T11:17:03.823Z,49
2023-04-14T11:18:00.582Z,49
2023-04-14T11:19:00.765Z,51.3
2023-04-14T11:20:00.656Z,51.6
2023-04-14T11:21:01.366Z,49.6
2023-04-14T11:22:00.951Z,49
2023-04-14T11:23:00.505Z,50.6
2023-04-14T11:24:00.535Z,50.9
2023-04-14T11:25:00.685Z,52.1
2023-04-14T11:26:00.524Z,52.7
2023-04-14T11:27:00.520Z,53.1
2023-04-14T11:28:00.579Z,52.7
2023-04-14T11:29:00.689Z,53.1
2023-04-14T11:30:00.735Z,54
2023-04-14T11:31:00.600Z,54.6
2023-04-14T11:32:00.613Z,52.7
2023-04-14T11:33:00.765Z,54
2023-04-14T11:34:00.665Z,54
2023-04-14T11:35:00.986Z,54.6
2023-04-14T11:36:00.800Z,53.7
2023-04-14T11:37:01.099Z,55.3
2023-04-14T11:38:00.521Z,54.6
2023-04-14T11:39:00.765Z,54
2023-04-14T11:40:00.589Z,54
2023-04-14T11:41:00.561Z,54.7
2023-04-14T11:42:00.541Z,55.3
2023-04-14T11:43:00.518Z,55.7
2023-04-14T11:44:00.593Z,54.7
2023-04-14T11:45:00.529Z,55.4
2023-04-14T11:46:00.568Z,54.1
2023-04-14T11:47:00.558Z,54.5
2023-04-14T11:48:00.547Z,54.8
2023-04-14T11:49:01.770Z,54.2
2023-04-14T11:50:00.572Z,50.4
2023-04-14T11:51:00.533Z,51.1
2023-04-14T11:52:00.546Z,51.7
2023-04-14T11:53:00.568Z,51.1
2023-04-14T11:54:00.525Z,51.4
2023-04-14T11:55:00.816Z,51.4
2023-04-14T11:56:00.848Z,51.4
2023-04-14T11:57:00.519Z,47.6
2023-04-14T11:58:00.628Z,48.3
2023-04-14T11:59:00.793Z,44.4
2023-04-14T12:00:00.577Z,45.4
2023-04-14T12:01:00.575Z,47.3
2023-04-14T12:02:00.743Z,48.5
2023-04-14T12:03:00.774Z,49.2
2023-04-14T12:04:00.676Z,47.3
2023-04-14T12:05:00.941Z,47.9
2023-04-14T12:06:00.803Z,47.2
2023-04-14T12:07:00.694Z,47.2
2023-04-14T12:08:00.793Z,47.5
2023-04-14T12:09:00.900Z,47.5
2023-04-14T12:10:00.612Z,47.8
2023-04-14T12:11:00.569Z,48.5
2023-04-14T12:12:00.523Z,47.5
2023-04-14T12:13:00.542Z,48.5
2023-04-14T12:14:00.668Z,47.2
2023-04-14T12:15:00.648Z,47.2
2023-04-14T12:16:00.600Z,48.1
2023-04-14T12:17:00.566Z,47.8
2023-04-14T12:18:00.612Z,47.8
2023-04-14T12:19:00.893Z,48
2023-04-14T12:20:00.610Z,49.6
2023-04-14T12:21:00.563Z,50.8
2023-04-14T12:22:00.537Z,51.4
2023-04-14T12:23:00.544Z,52.7
2023-04-14T12:24:00.566Z,53.3
2023-04-14T12:25:00.625Z,53.9
2023-04-14T12:26:00.585Z,53.6
2023-04-14T12:27:00.554Z,54.3
2023-04-14T12:28:00.544Z,52.4
2023-04-14T12:29:00.942Z,53.6
2023-04-14T12:30:00.825Z,54.2
2023-04-14T12:31:00.628Z,53.9
2023-04-14T12:32:00.736Z,54.6
2023-04-14T12:33:00.680Z,55.2
2023-04-14T12:34:00.552Z,53.9
2023-04-14T12:35:00.595Z,55.2
2023-04-14T12:36:00.578Z,55.2
2023-04-14T12:37:00.558Z,54.9
2023-04-14T12:38:00.546Z,56.5
2023-04-14T12:39:00.775Z,55.8
2023-04-14T12:40:00.677Z,56.4
2023-04-14T12:41:00.552Z,55.8
2023-04-14T12:42:00.731Z,55.2
2023-04-14T12:43:00.596Z,55.2
2023-04-14T12:44:00.577Z,54.8
2023-04-14T12:45:00.695Z,54.8
2023-04-14T12:46:00.574Z,55.2
2023-04-14T12:47:00.638Z,55.5
2023-04-14T12:48:00.594Z,56.4
2023-04-14T12:49:00.835Z,56.4
2023-04-14T12:50:00.633Z,56.4
2023-04-14T12:51:00.562Z,55.8
2023-04-14T12:52:00.597Z,56.1
2023-04-14T12:53:00.571Z,54.5
2023-04-14T12:54:00.557Z,55.8
2023-04-14T12:55:00.585Z,56.4
2023-04-14T12:56:00.586Z,57
2023-04-14T12:57:00.606Z,56.4
2023-04-14T12:58:00.568Z,55.4
2023-04-14T12:59:00.983Z,55.7
2023-04-14T13:00:00.602Z,55.7
2023-04-14T13:01:00.615Z,57
2023-04-14T13:02:00.687Z,57.6
2023-04-14T13:03:00.691Z,57.6
2023-04-14T13:04:00.736Z,57
2023-04-14T13:05:00.610Z,56.7
2023-04-14T13:06:00.604Z,57
2023-04-14T13:07:00.572Z,57
2023-04-14T13:08:00.635Z,57.9
2023-04-14T13:09:01.069Z,56.3
2023-04-14T13:10:00.626Z,55.7
2023-04-14T13:11:01.281Z,54.5
2023-04-14T13:12:00.620Z,54.1
2023-04-14T13:13:00.602Z,54.8
2023-04-14T13:14:00.613Z,53.5
2023-04-14T13:15:00.625Z,54.2
2023-04-14T13:16:15.248Z,53.8
2023-04-14T13:17:00.610Z,52.9
2023-04-14T13:18:00.700Z,53.9
2023-04-14T13:19:01.052Z,53.9
2023-04-14T13:20:00.641Z,53.5
2023-04-14T13:21:00.629Z,53.9
2023-04-14T13:22:00.617Z,53.9
2023-04-14T13:23:00.668Z,53
2023-04-14T13:24:00.648Z,52
2023-04-14T13:25:00.749Z,52